Time;durP1;ratioP1;P1;durP2;ratioP2;P2;SDS_P1;SDS_P2;PMS_P1;PMS_P2;Temp;Humidity;BMP_temperature;BMP_pressure;BME280_temperature;BME280_humidity;BME280_pressure;Samples;Min_cycle;Max_cycle;Signal;HPM_P1;HPM_P2
2022/10/12 05:56:12;;;;;;;;;33.25;27.00;;;;;;;;5102574;27;13322;-74
2022/10/12 05:58:37;;;;;;;;;30.75;22.25;;;;;;;;5106336;28;11527;-68
2022/10/12 06:01:03;;;;;;;;;29.00;25.75;;;;;;;;5106800;28;9557;-69
2022/10/12 06:03:28;;;;;;;;;25.75;24.00;;;;;;;;5109959;28;9494;-68
2022/10/12 06:05:54;;;;;;;;;39.00;34.75;;;;;;;;5106571;28;11508;-69
2022/10/12 06:08:19;;;;;;;;;28.00;26.75;;;;;;;;5106994;28;8784;-76
2022/10/12 06:10:46;;;;;;;;;38.50;28.75;;;;;;;;5106333;28;8779;-72
2022/10/12 06:13:11;;;;;;;;;28.50;26.00;;;;;;;;5115743;27;8797;-69
2022/10/12 06:15:36;;;;;;;;;29.50;25.50;;;;;;;;5126582;27;11539;-70
2022/10/12 06:18:01;;;;;;;;;30.75;25.00;;;;;;;;5114255;27;8799;-72
2022/10/12 06:20:27;;;;;;;;;28.25;26.25;;;;;;;;5104441;28;9610;-71
2022/10/12 06:22:52;;;;;;;;;36.00;30.50;;;;;;;;5106240;28;8823;-70
2022/10/12 06:25:17;;;;;;;;;29.75;27.50;;;;;;;;5105985;28;8811;-70
2022/10/12 06:27:45;;;;;;;;;26.75;26.00;;;;;;;;5105262;28;8842;-70
2022/10/12 06:30:11;;;;;;;;;31.75;29.75;;;;;;;;5105228;28;8796;-69
2022/10/12 06:32:36;;;;;;;;;29.75;27.25;;;;;;;;5104826;28;11540;-70
2022/10/12 06:35:02;;;;;;;;;27.25;26.25;;;;;;;;5103198;28;8974;-70
2022/10/12 06:37:28;;;;;;;;;30.50;25.50;;;;;;;;5104796;28;8957;-69
2022/10/12 06:39:54;;;;;;;;;28.25;24.00;;;;;;;;5104978;28;8823;-69
2022/10/12 06:42:19;;;;;;;;;32.75;28.50;;;;;;;;5113201;27;11496;-69
2022/10/12 06:44:44;;;;;;;;;25.00;25.00;;;;;;;;5126666;27;8905;-70
2022/10/12 06:47:09;;;;;;;;;26.75;25.00;;;;;;;;5125967;27;8796;-70
2022/10/12 06:49:35;;;;;;;;;31.50;25.50;;;;;;;;5124282;27;8825;-70
2022/10/12 06:52:00;;;;;;;;;33.75;29.25;;;;;;;;5126072;27;8762;-71
2022/10/12 06:54:25;;;;;;;;;36.50;29.75;;;;;;;;5125950;27;8817;-69
2022/10/12 06:56:51;;;;;;;;;32.50;30.00;;;;;;;;5126197;27;8890;-72
2022/10/12 06:59:17;;;;;;;;;38.00;32.75;;;;;;;;5124925;27;9563;-74
2022/10/12 07:01:43;;;;;;;;;35.75;30.00;;;;;;;;5125747;27;8824;-69
2022/10/12 07:04:08;;;;;;;;;27.75;25.50;;;;;;;;5125621;27;11498;-69
2022/10/12 07:06:34;;;;;;;;;32.50;28.25;;;;;;;;5117656;27;8931;-69
2022/10/12 07:09:00;;;;;;;;;31.75;27.75;;;;;;;;5110552;28;8843;-69
2022/10/12 07:11:25;;;;;;;;;31.75;30.00;;;;;;;;5110725;28;8821;-70
2022/10/12 07:13:50;;;;;;;;;31.50;29.00;;;;;;;;5111831;28;11570;-70
2022/10/12 07:16:15;;;;;;;;;29.25;26.50;;;;;;;;5111806;28;8807;-70
2022/10/12 07:18:41;;;;;;;;;31.50;28.50;;;;;;;;5111759;28;8808;-69
2022/10/12 07:21:06;;;;;;;;;45.25;38.25;;;;;;;;5111730;28;8824;-68
2022/10/12 07:23:32;;;;;;;;;25.00;22.75;;;;;;;;5111716;28;8773;-67
2022/10/12 07:25:58;;;;;;;;;31.75;28.00;;;;;;;;5111737;28;8821;-71
2022/10/12 07:28:23;;;;;;;;;27.00;22.75;;;;;;;;5110039;28;11598;-71
2022/10/12 07:30:48;;;;;;;;;31.50;27.25;;;;;;;;5111652;28;8821;-70
2022/10/12 07:33:13;;;;;;;;;38.50;29.75;;;;;;;;5111407;28;8805;-70
2022/10/12 07:35:39;;;;;;;;;25.50;24.00;;;;;;;;5111508;27;8821;-68
2022/10/12 07:38:04;;;;;;;;;26.50;24.00;;;;;;;;5111501;28;8797;-68
2022/10/12 07:40:30;;;;;;;;;37.25;32.50;;;;;;;;5111264;28;8794;-70
2022/10/12 07:42:55;;;;;;;;;36.50;29.00;;;;;;;;5111452;28;8887;-69
2022/10/12 07:45:21;;;;;;;;;26.50;25.50;;;;;;;;5111303;28;9528;-70
2022/10/12 07:47:46;;;;;;;;;26.25;24.00;;;;;;;;5109575;28;9464;-70
2022/10/12 07:50:11;;;;;;;;;27.00;25.25;;;;;;;;5110133;28;8812;-70
2022/10/12 07:52:37;;;;;;;;;26.25;26.00;;;;;;;;5111226;28;8912;-72
2022/10/12 07:55:02;;;;;;;;;29.50;27.25;;;;;;;;5111173;28;8833;-72
2022/10/12 07:57:27;;;;;;;;;30.25;24.75;;;;;;;;5109869;28;8809;-71
2022/10/12 07:59:53;;;;;;;;;27.00;26.25;;;;;;;;5111103;28;8801;-71
2022/10/12 08:02:18;;;;;;;;;30.75;25.75;;;;;;;;5109482;28;8841;-70
2022/10/12 08:04:44;;;;;;;;;24.00;23.00;;;;;;;;5110793;28;9527;-71
2022/10/12 08:07:09;;;;;;;;;33.25;27.00;;;;;;;;5109720;28;8813;-70
2022/10/12 08:09:35;;;;;;;;;22.50;20.75;;;;;;;;5110983;28;8969;-75
2022/10/12 08:12:00;;;;;;;;;22.00;22.00;;;;;;;;5110616;28;8801;-70
2022/10/12 08:14:26;;;;;;;;;26.00;25.00;;;;;;;;5110744;28;8816;-69
2022/10/12 08:16:51;;;;;;;;;24.00;21.25;;;;;;;;5110209;28;8765;-72
2022/10/12 08:19:16;;;;;;;;;25.25;23.25;;;;;;;;5109402;28;8842;-69
2022/10/12 08:21:42;;;;;;;;;22.25;20.00;;;;;;;;5110218;28;8805;-71
2022/10/12 08:24:08;;;;;;;;;22.75;21.00;;;;;;;;5110053;28;9590;-69
2022/10/12 08:26:33;;;;;;;;;24.75;23.00;;;;;;;;5111718;28;8789;-71
2022/10/12 08:29:00;;;;;;;;;25.50;21.50;;;;;;;;5110939;28;8814;-71
2022/10/12 08:31:25;;;;;;;;;25.25;22.75;;;;;;;;5110010;28;8778;-72
2022/10/12 08:33:50;;;;;;;;;25.00;25.00;;;;;;;;5108974;28;10795;-71
2022/10/12 08:36:16;;;;;;;;;23.25;23.25;;;;;;;;5109358;28;8785;-72
2022/10/12 08:38:42;;;;;;;;;39.00;34.50;;;;;;;;5109339;28;8892;-70
2022/10/12 08:41:19;;;;;;;;;27.50;24.00;;;;;;;;5109548;28;8789;-71
2022/10/12 08:43:44;;;;;;;;;24.75;20.25;;;;;;;;5108887;28;11001;-73
2022/10/12 08:46:09;;;;;;;;;26.75;23.00;;;;;;;;5092727;22;11966;-74
2022/10/12 08:48:55;;;;;;;;;101.00;90.67;;;;;;;;5050039;28;8815;-73
2022/10/12 08:51:23;;;;;;;;;41.25;35.75;;;;;;;;5049876;28;8815;-74
2022/10/12 08:54:04;;;;;;;;;31.00;27.00;;;;;;;;5050417;28;11045;-77
2022/10/12 08:56:29;;;;;;;;;33.00;29.75;;;;;;;;5069050;28;10451;-78
2022/10/12 08:58:54;;;;;;;;;32.25;24.25;;;;;;;;5068674;28;10251;-78
2022/10/12 09:01:26;;;;;;;;;28.50;23.25;;;;;;;;5050322;28;8823;-76
2022/10/12 09:03:51;;;;;;;;;25.00;23.33;;;;;;;;5068081;28;8940;-77
2022/10/12 09:06:32;;;;;;;;;27.00;27.00;;;;;;;;5068475;28;9333;-77
2022/10/12 09:09:03;;;;;;;;;46.75;38.75;;;;;;;;5068204;28;8899;-74
2022/10/12 09:11:28;;;;;;;;;36.25;33.00;;;;;;;;5068219;28;11037;-74
2022/10/12 09:14:05;;;;;;;;;28.00;27.00;;;;;;;;5068229;28;9594;-73
2022/10/12 09:16:33;;;;;;;;;20.75;18.00;;;;;;;;5050126;28;8978;-74
2022/10/12 09:19:01;;;;;;;;;20.00;18.75;;;;;;;;5067691;28;8800;-73
2022/10/12 09:21:30;;;;;;;;;18.50;17.25;;;;;;;;5068139;28;8818;-74
2022/10/12 09:23:56;;;;;;;;;18.00;17.00;;;;;;;;5068075;28;8804;-75
2022/10/12 09:26:31;;;;;;;;;19.00;15.67;;;;;;;;5068113;28;9631;-73
2022/10/12 09:28:57;;;;;;;;;23.25;18.00;;;;;;;;5067982;28;9593;-73
2022/10/12 09:31:31;;;;;;;;;19.00;17.00;;;;;;;;5068250;28;8922;-73
2022/10/12 09:33:58;;;;;;;;;35.33;32.00;;;;;;;;5068416;28;8938;-73
2022/10/12 09:36:25;;;;;;;;;63.25;50.50;;;;;;;;5068760;28;9390;-72
2022/10/12 09:38:51;;;;;;;;;37.25;32.50;;;;;;;;5068403;28;11199;-74
2022/10/12 09:41:21;;;;;;;;;20.33;19.00;;;;;;;;5068665;28;8800;-72
2022/10/12 09:43:52;;;;;;;;;23.00;22.00;;;;;;;;5068592;28;8800;-72
2022/10/12 09:46:20;;;;;;;;;17.75;14.75;;;;;;;;5068461;28;8935;-75
2022/10/12 09:48:56;;;;;;;;;13.25;13.25;;;;;;;;5067942;28;8974;-73
2022/10/12 09:51:22;;;;;;;;;17.75;15.75;;;;;;;;5067777;28;8815;-73
2022/10/12 09:53:48;;;;;;;;;15.00;13.33;;;;;;;;5067892;28;8824;-72
2022/10/12 09:56:24;;;;;;;;;15.00;15.00;;;;;;;;5068060;28;8824;-73
2022/10/12 09:58:52;;;;;;;;;14.25;13.00;;;;;;;;5067689;28;8811;-74
2022/10/12 10:01:18;;;;;;;;;13.75;13.50;;;;;;;;5068102;28;8792;-78
2022/10/12 10:03:44;;;;;;;;;17.33;15.67;;;;;;;;5069048;28;9038;-74
2022/10/12 10:06:09;;;;;;;;;17.33;16.00;;;;;;;;5068284;28;8828;-74
2022/10/12 10:08:44;;;;;;;;;20.67;19.00;;;;;;;;5067981;28;8861;-74
2022/10/12 10:11:24;;;;;;;;;16.25;15.75;;;;;;;;5067897;28;9526;-73
2022/10/12 10:13:52;;;;;;;;;21.25;21.00;;;;;;;;5067987;28;8784;-74
2022/10/12 10:16:18;;;;;;;;;29.50;27.00;;;;;;;;5067458;28;8808;-73
2022/10/12 10:18:48;;;;;;;;;17.75;16.00;;;;;;;;5067667;28;8831;-76
2022/10/12 10:21:15;;;;;;;;;20.75;20.75;;;;;;;;5067819;28;9597;-75
2022/10/12 10:23:49;;;;;;;;;23.75;21.00;;;;;;;;5068069;28;8842;-74
2022/10/12 10:26:16;;;;;;;;;19.60;17.60;;;;;;;;5067635;28;8916;-74
2022/10/12 10:28:45;;;;;;;;;19.80;18.40;;;;;;;;5067966;28;8788;-74
2022/10/12 10:31:15;;;;;;;;;17.00;17.00;;;;;;;;5049506;28;8908;-77
2022/10/12 10:33:41;;;;;;;;;18.80;18.00;;;;;;;;5067507;28;8812;-75
2022/10/12 10:36:12;;;;;;;;;17.25;17.25;;;;;;;;5067688;28;8835;-74
2022/10/12 10:38:49;;;;;;;;;16.60;16.20;;;;;;;;5067387;28;8800;-73
2022/10/12 10:41:16;;;;;;;;;16.80;16.60;;;;;;;;5068665;28;8870;-75
2022/10/12 10:43:44;;;;;;;;;17.60;16.80;;;;;;;;5071175;28;8819;-75
2022/10/12 10:46:11;;;;;;;;;11.80;10.80;;;;;;;;5071482;28;8827;-75
2022/10/12 10:48:55;;;;;;;;;17.00;15.25;;;;;;;;5071117;28;8838;-75
2022/10/12 10:51:20;;;;;;;;;22.00;21.00;;;;;;;;5054940;28;8827;-75
2022/10/12 10:53:47;;;;;;;;;16.00;14.67;;;;;;;;5072247;28;8934;-73
2022/10/12 10:56:20;;;;;;;;;15.00;15.00;;;;;;;;5071227;28;8928;-78
2022/10/12 10:58:49;;;;;;;;;11.75;11.50;;;;;;;;5071103;28;8827;-78
2022/10/12 11:01:17;;;;;;;;;17.75;16.00;;;;;;;;5070971;28;8823;-76
2022/10/12 11:03:53;;;;;;;;;14.75;14.25;;;;;;;;5070848;28;8814;-76
2022/10/12 11:06:36;;;;;;;;;15.75;15.00;;;;;;;;5071442;28;9001;-76
2022/10/12 11:09:09;;;;;;;;;16.75;15.00;;;;;;;;5071079;28;8926;-77
2022/10/12 11:11:37;;;;;;;;;13.75;12.75;;;;;;;;5070710;28;8787;-76
2022/10/12 11:14:07;;;;;;;;;17.50;16.00;;;;;;;;5070994;28;9672;-78
2022/10/12 11:16:37;;;;;;;;;14.25;13.75;;;;;;;;5070873;28;8938;-76
2022/10/12 11:19:17;;;;;;;;;34.00;29.00;;;;;;;;5070686;28;8796;-79
2022/10/12 11:21:46;;;;;;;;;26.25;23.50;;;;;;;;5071356;28;9355;-79
2022/10/12 11:24:16;;;;;;;;;21.75;18.00;;;;;;;;5070049;28;8807;-75
2022/10/12 11:26:56;;;;;;;;;26.00;20.25;;;;;;;;5070481;28;8795;-80
2022/10/12 11:29:22;;;;;;;;;20.75;20.00;;;;;;;;5070406;28;8804;-77
2022/10/12 11:31:53;;;;;;;;;18.33;18.33;;;;;;;;5070446;28;8841;-78
2022/10/12 11:34:20;;;;;;;;;19.50;17.75;;;;;;;;5070302;28;8938;-78
2022/10/12 11:36:48;;;;;;;;;17.50;17.00;;;;;;;;5071514;28;8820;-79
2022/10/12 11:39:17;;;;;;;;;17.25;14.75;;;;;;;;5071286;28;8816;-78
2022/10/12 11:41:48;;;;;;;;;19.25;17.25;;;;;;;;5070747;28;8800;-79
2022/10/12 11:44:31;;;;;;;;;24.00;22.33;;;;;;;;5052437;28;8847;-77
2022/10/12 11:47:01;;;;;;;;;23.00;19.00;;;;;;;;5070514;28;9187;-78
2022/10/12 11:49:44;;;;;;;;;18.00;18.00;;;;;;;;5051660;28;9005;-76
2022/10/12 11:52:10;;;;;;;;;16.50;16.00;;;;;;;;5070179;28;8808;-80
2022/10/12 11:54:48;;;;;;;;;13.75;13.75;;;;;;;;5051978;28;8912;-78
2022/10/12 11:57:20;;;;;;;;;14.00;12.50;;;;;;;;5053385;28;8835;-79
2022/10/12 11:59:48;;;;;;;;;16.25;14.50;;;;;;;;5070824;28;8912;-81
2022/10/12 12:02:20;;;;;;;;;16.50;15.50;;;;;;;;5071125;28;8800;-79
2022/10/12 12:04:46;;;;;;;;;15.50;15.25;;;;;;;;5070735;28;8847;-74
2022/10/12 12:07:31;;;;;;;;;16.00;15.00;;;;;;;;5069540;28;8819;-75
2022/10/12 12:09:56;;;;;;;;;21.00;18.33;;;;;;;;5052322;28;9118;-77
2022/10/12 12:12:26;;;;;;;;;13.00;13.00;;;;;;;;5070345;28;9045;-78
2022/10/12 12:14:51;;;;;;;;;13.00;12.00;;;;;;;;5051939;28;8935;-76
2022/10/12 12:17:17;;;;;;;;;14.00;14.00;;;;;;;;5051347;28;8896;-76
2022/10/12 12:19:43;;;;;;;;;13.00;11.00;;;;;;;;5069500;28;8803;-77
2022/10/12 12:22:10;;;;;;;;;12.33;11.67;;;;;;;;5069378;28;8823;-75
2022/10/12 12:24:36;;;;;;;;;16.00;14.33;;;;;;;;5065702;28;9100;-78
2022/10/12 12:27:01;;;;;;;;;15.00;14.67;;;;;;;;5049591;28;9070;-79
2022/10/12 12:29:28;;;;;;;;;14.67;13.33;;;;;;;;5049450;28;8806;-76
2022/10/12 12:31:57;;;;;;;;;12.00;12.00;;;;;;;;5051275;28;8881;-75
2022/10/12 12:34:23;;;;;;;;;11.75;11.75;;;;;;;;5054250;28;9149;-76
2022/10/12 12:36:50;;;;;;;;;13.00;11.00;;;;;;;;5049519;28;8812;-74
2022/10/12 12:39:25;;;;;;;;;11.67;11.67;;;;;;;;5049230;28;9811;-72
2022/10/12 12:41:56;;;;;;;;;12.00;11.67;;;;;;;;5060441;28;8922;-73
2022/10/12 12:44:33;;;;;;;;;12.67;11.00;;;;;;;;5056766;28;9106;-74
2022/10/12 12:46:58;;;;;;;;;13.67;12.33;;;;;;;;5056632;28;8984;-74
2022/10/12 12:49:28;;;;;;;;;11.67;11.67;;;;;;;;5058547;28;8986;-74
2022/10/12 12:51:56;;;;;;;;;13.67;12.67;;;;;;;;5057947;28;8814;-74
2022/10/12 12:54:22;;;;;;;;;13.00;13.00;;;;;;;;5056869;28;9631;-74
2022/10/12 12:56:54;;;;;;;;;7.00;7.00;;;;;;;;5034818;28;10003;-73
2022/10/12 12:59:28;;;;;;;;;10.67;10.00;;;;;;;;5051497;28;9258;-75
2022/10/12 13:02:12;;;;;;;;;9.00;9.00;;;;;;;;5056644;28;9174;-74
2022/10/12 13:04:44;;;;;;;;;9.33;8.67;;;;;;;;5056474;28;9030;-74
2022/10/12 13:07:18;;;;;;;;;10.67;10.00;;;;;;;;5056409;28;8968;-77
2022/10/12 13:09:47;;;;;;;;;14.00;12.33;;;;;;;;5057056;28;9141;-75
2022/10/12 13:12:31;;;;;;;;;11.67;11.67;;;;;;;;5058775;28;9858;-76
2022/10/12 13:15:16;;;;;;;;;12.00;11.00;;;;;;;;5060272;28;8976;-75
2022/10/12 13:18:00;;;;;;;;;9.67;9.67;;;;;;;;5057255;28;9138;-74
2022/10/12 13:20:28;;;;;;;;;11.67;11.33;;;;;;;;5058165;28;9038;-75
2022/10/12 13:22:54;;;;;;;;;11.00;10.00;;;;;;;;5056445;28;8988;-74
2022/10/12 13:25:32;;;;;;;;;13.67;12.00;;;;;;;;5056790;28;9144;-74
2022/10/12 13:27:59;;;;;;;;;12.00;11.67;;;;;;;;5058167;28;8948;-75
2022/10/12 13:30:31;;;;;;;;;9.67;9.00;;;;;;;;5057817;28;9732;-75
2022/10/12 13:33:06;;;;;;;;;13.00;11.00;;;;;;;;5056206;28;8898;-75
2022/10/12 13:35:34;;;;;;;;;13.00;12.00;;;;;;;;5040184;28;9926;-75
2022/10/12 13:38:14;;;;;;;;;9.00;8.33;;;;;;;;5030351;28;9160;-76
2022/10/12 13:40:50;;;;;;;;;12.33;10.00;;;;;;;;5030340;28;9177;-74
2022/10/12 13:43:21;;;;;;;;;10.33;10.00;;;;;;;;5063190;28;9280;-76
2022/10/12 13:45:47;;;;;;;;;13.00;12.00;;;;;;;;5057958;28;9220;-74
2022/10/12 13:48:17;;;;;;;;;13.33;13.33;;;;;;;;5057371;28;9170;-75
2022/10/12 13:50:51;;;;;;;;;15.00;14.00;;;;;;;;5057602;28;8857;-75
2022/10/12 13:53:16;;;;;;;;;13.00;12.00;;;;;;;;5056743;28;9354;-76
2022/10/12 13:55:42;;;;;;;;;15.00;12.33;;;;;;;;5056727;28;10101;-75
2022/10/12 13:58:22;;;;;;;;;14.00;12.25;;;;;;;;5056637;28;8940;-76
2022/10/12 14:00:48;;;;;;;;;13.67;11.67;;;;;;;;5054008;28;8768;-75
2022/10/12 14:03:13;;;;;;;;;14.00;12.00;;;;;;;;5054722;28;9389;-74
2022/10/12 14:05:44;;;;;;;;;10.00;10.00;;;;;;;;5052399;28;9432;-75
2022/10/12 14:08:15;;;;;;;;;9.33;9.33;;;;;;;;5033624;28;9566;-74
2022/10/12 14:10:43;;;;;;;;;12.67;10.00;;;;;;;;5065545;28;9349;-73
2022/10/12 14:13:13;;;;;;;;;11.33;11.00;;;;;;;;5061506;28;9307;-75
2022/10/12 14:15:39;;;;;;;;;15.67;12.00;;;;;;;;5064873;28;9912;-74
2022/10/12 14:18:23;;;;;;;;;9.00;9.00;;;;;;;;5033549;28;9149;-74
2022/10/12 14:20:49;;;;;;;;;13.00;13.00;;;;;;;;5051940;28;9349;-74
2022/10/12 14:23:17;;;;;;;;;11.00;10.00;;;;;;;;5051827;28;9477;-75
2022/10/12 14:25:50;;;;;;;;;12.00;10.67;;;;;;;;5051679;28;9679;-72
2022/10/12 14:28:34;;;;;;;;;13.67;11.00;;;;;;;;5051914;28;9423;-74
2022/10/12 14:30:59;;;;;;;;;12.75;12.75;;;;;;;;5051588;28;9846;-76
2022/10/12 14:33:25;;;;;;;;;12.33;12.00;;;;;;;;5054940;28;9615;-75
2022/10/12 14:35:51;;;;;;;;;12.00;11.00;;;;;;;;5051100;28;8858;-74
2022/10/12 14:38:39;;;;;;;;;13.25;12.50;;;;;;;;5049837;28;9409;-73
2022/10/12 14:41:40;;;;;;;;;13.25;13.25;;;;;;;;5062945;28;8875;-73
2022/10/12 14:44:10;;;;;;;;;11.50;11.50;;;;;;;;4973703;28;9373;-74
2022/10/12 14:47:01;;;;;;;;;12.67;10.67;;;;;;;;4989963;28;9749;-72
2022/10/12 14:49:33;;;;;;;;;10.67;10.67;;;;;;;;4978647;28;9445;-71
2022/10/12 14:51:59;;;;;;;;;13.67;12.33;;;;;;;;4984058;28;9278;-73
2022/10/12 14:54:24;;;;;;;;;12.50;11.50;;;;;;;;4970708;28;9504;-69
2022/10/12 14:56:49;;;;;;;;;12.50;11.00;;;;;;;;4970173;28;8818;-71
2022/10/12 14:59:15;;;;;;;;;11.00;11.00;;;;;;;;4968562;28;8815;-71
2022/10/12 15:01:40;;;;;;;;;11.50;11.00;;;;;;;;4980361;28;8834;-70
2022/10/12 15:04:05;;;;;;;;;11.50;11.00;;;;;;;;4983726;28;8867;-69
2022/10/12 15:06:30;;;;;;;;;13.00;12.50;;;;;;;;4989610;28;8789;-70
2022/10/12 15:08:56;;;;;;;;;12.00;11.00;;;;;;;;4973282;28;8832;-71
2022/10/12 15:11:21;;;;;;;;;10.00;10.00;;;;;;;;4989439;28;8931;-70
2022/10/12 15:13:46;;;;;;;;;14.00;11.00;;;;;;;;4988541;28;8789;-71
2022/10/12 15:16:23;;;;;;;;;11.00;11.00;;;;;;;;4986826;28;8844;-70
2022/10/12 15:18:48;;;;;;;;;12.50;11.00;;;;;;;;5038617;28;8928;-70
2022/10/12 15:21:14;;;;;;;;;13.25;13.25;;;;;;;;5050810;28;9585;-69
2022/10/12 15:23:39;;;;;;;;;13.00;13.00;;;;;;;;5050667;28;9536;-69
2022/10/12 15:26:05;;;;;;;;;13.33;13.33;;;;;;;;5049828;28;8974;-69
2022/10/12 15:28:30;;;;;;;;;15.25;14.00;;;;;;;;5052100;28;9592;-74
2022/10/12 15:30:57;;;;;;;;;13.00;13.00;;;;;;;;5070555;28;9023;-70
2022/10/12 15:33:22;;;;;;;;;14.00;13.50;;;;;;;;5070447;28;8815;-71
2022/10/12 15:35:48;;;;;;;;;15.50;15.00;;;;;;;;5072972;28;9429;-73
2022/10/12 15:38:14;;;;;;;;;15.50;13.50;;;;;;;;5073293;28;8851;-71
2022/10/12 15:40:39;;;;;;;;;13.00;13.00;;;;;;;;5070711;28;8795;-72
2022/10/12 15:43:04;;;;;;;;;14.25;12.75;;;;;;;;5052361;28;8808;-74
2022/10/12 15:45:33;;;;;;;;;16.25;12.00;;;;;;;;5068675;28;9674;-71
2022/10/12 15:47:59;;;;;;;;;19.25;16.25;;;;;;;;5052658;28;8827;-71
2022/10/12 15:50:33;;;;;;;;;14.25;14.25;;;;;;;;5052104;28;9830;-76
2022/10/12 15:52:59;;;;;;;;;17.50;14.75;;;;;;;;5070462;28;8930;-71
2022/10/12 15:55:25;;;;;;;;;15.00;12.25;;;;;;;;5068180;28;9976;-73
2022/10/12 15:57:51;;;;;;;;;15.25;14.00;;;;;;;;5070451;28;8815;-75
2022/10/12 16:00:17;;;;;;;;;18.50;16.50;;;;;;;;5070326;28;9683;-74
2022/10/12 16:02:43;;;;;;;;;13.00;13.00;;;;;;;;5069975;28;8830;-73
2022/10/12 16:05:19;;;;;;;;;18.75;14.25;;;;;;;;5067408;28;10422;-79
2022/10/12 16:07:44;;;;;;;;;14.50;13.25;;;;;;;;5052140;28;8864;-75
2022/10/12 16:10:13;;;;;;;;;14.75;14.75;;;;;;;;5069156;28;9768;-74
2022/10/12 16:12:40;;;;;;;;;17.00;14.50;;;;;;;;5046756;28;8835;-75
2022/10/12 16:15:05;;;;;;;;;14.00;14.00;;;;;;;;5062822;28;9834;-77
2022/10/12 16:17:31;;;;;;;;;17.50;14.00;;;;;;;;5059309;28;9846;-76
2022/10/12 16:19:56;;;;;;;;;16.75;14.75;;;;;;;;5063506;28;8808;-76
2022/10/12 16:22:21;;;;;;;;;17.50;15.50;;;;;;;;5067788;28;8850;-75
2022/10/12 16:24:46;;;;;;;;;14.25;13.50;;;;;;;;5066840;28;8893;-78
2022/10/12 16:27:12;;;;;;;;;13.75;12.75;;;;;;;;5051530;28;9019;-78
2022/10/12 16:29:37;;;;;;;;;20.25;18.00;;;;;;;;5069663;28;8804;-74
2022/10/12 16:32:03;;;;;;;;;20.00;15.25;;;;;;;;5069727;28;8820;-74
2022/10/12 16:34:29;;;;;;;;;16.50;14.00;;;;;;;;5067416;28;8851;-76
2022/10/12 16:36:54;;;;;;;;;15.00;15.00;;;;;;;;5069459;28;8830;-74
2022/10/12 16:39:19;;;;;;;;;16.75;16.50;;;;;;;;5068685;28;11516;-76
2022/10/12 16:41:44;;;;;;;;;16.50;14.50;;;;;;;;5069180;28;8854;-76
2022/10/12 16:44:10;;;;;;;;;11.00;11.00;;;;;;;;5049240;28;8867;-74
2022/10/12 16:46:36;;;;;;;;;18.75;15.25;;;;;;;;5069607;28;8836;-76
